DW2380 Paimio FI current weather conditions

sailwx.info

Wind from 360

Air temperature -3.3° C
Dewpoint -4.3° C

Last reported at 2016-Feb-13 07:46 UTC.
Time now 2016-Feb-13 08:54 UTC

Location: N 60°28' E 022°40'.
View on Google Maps.

See reports from other nearby stations

  
Tides and Currents Weather Stations Pressure Air Temp Water Temp Dewpoint Dewpoint Depression Visibility Wind Speed Wind Dir Waves Ship Positions
date/time (UTC)wind fromknots sea level pressurealtimeterstation pressurevisibilityair tempwater tempwave heightnotes
2016-Feb-13 07:46 360 -3.3
2016-Feb-13 07:31 360 -3.3
2016-Feb-13 07:16 360 -3.9
2016-Feb-13 07:01 360 -3.9
2016-Feb-13 06:46 360 -3.9
2016-Feb-13 06:31 360 -4.4
2016-Feb-13 06:16 360 -4.4
2016-Feb-13 06:01 360 0 gusting 1 -4.4
2016-Feb-13 05:46 360 -4.4
2016-Feb-13 05:29 360 -3.9
2016-Feb-13 05:14 360 -3.9
2016-Feb-13 04:59 360 0 gusting 4 -3.9
2016-Feb-13 04:44 360 0 gusting 3 -3.3
2016-Feb-13 04:29 360 0 gusting 3 -3.3
2016-Feb-13 04:14 360 1 gusting 4 -2.8
2016-Feb-13 03:59 360 -2.2
2016-Feb-13 03:43 360 2 gusting 8 -1.7
2016-Feb-13 03:28 360 9 gusting 18 -1.7
2016-Feb-13 03:13 360 5 gusting 8 -1.7
2016-Feb-13 02:58 360 3 gusting 7 -1.7
2016-Feb-13 02:43 360 2 gusting 6 -1.7
2016-Feb-13 02:27 360 1 gusting 5 -1.7
2016-Feb-13 02:12 360 1 gusting 4 -1.7
2016-Feb-13 01:57 360 1 gusting 5 -1.1
2016-Feb-13 01:42 360 4 gusting 6 -1.1
2016-Feb-13 01:27 360 3 gusting 8 -1.1
2016-Feb-13 01:12 360 4 gusting 8 -1.1
2016-Feb-13 00:57 360 6 gusting 10 -1.1
2016-Feb-13 00:41 360 4 gusting 8 -1.1
2016-Feb-13 00:26 360 2 gusting 7 -1.1
2016-Feb-13 00:11 360 4 gusting 8 -1.1
2016-Feb-12 23:56 360 2 gusting 5 -1.1
2016-Feb-12 23:41 360 2 gusting 6 -1.1
2016-Feb-12 23:26 360 3 gusting 8 -1.1
2016-Feb-12 23:11 360 4 gusting 8 -1.1
2016-Feb-12 22:56 360 5 gusting 8 -1.1
2016-Feb-12 22:41 360 4 gusting 7 -1.1
2016-Feb-12 22:26 360 2 gusting 6 -1.1
2016-Feb-12 22:11 360 4 gusting 6 -1.1
2016-Feb-12 21:54 360 1 gusting 6 -1.1
2016-Feb-12 21:39 360 2 gusting 6 -1.1
2016-Feb-12 21:24 360 3 gusting 6 -1.1
2016-Feb-12 21:09 360 3 gusting 7 -1.1
2016-Feb-12 20:54 360 3 gusting 12 -1.1
2016-Feb-12 20:39 360 5 gusting 13 -1.1
2016-Feb-12 20:23 360 4 gusting 7 -1.1
2016-Feb-12 20:08 360 5 gusting 11 -1.1
2016-Feb-12 19:53 360 6 gusting 11 -1.1
2016-Feb-12 19:38 360 5 gusting 11 -1.7
2016-Feb-12 19:23 360 7 gusting 14 -1.7
2016-Feb-12 19:08 360 7 gusting 13 -1.1
2016-Feb-12 18:52 360 8 gusting 13 -1.1
2016-Feb-12 18:37 360 6 gusting 17 -1.1
2016-Feb-12 18:22 360 8 gusting 16 -1.1
2016-Feb-12 18:07 360 10 gusting 21 -1.1
2016-Feb-12 17:52 360 9 gusting 16 -1.1
2016-Feb-12 17:37 360 7 gusting 16 -0.6
2016-Feb-12 17:21 360 8 gusting 20 -0.6
2016-Feb-12 17:06 360 6 gusting 14 -0.6
2016-Feb-12 16:51 360 9 gusting 14 -0.6
2016-Feb-12 16:36 360 9 gusting 19 -0.6
2016-Feb-12 16:21 360 9 gusting 15 -0.0
2016-Feb-12 16:06 360 8 gusting 16 -0.0
2016-Feb-12 15:51 360 8 gusting 16 -0.0
2016-Feb-12 15:36 360 7 gusting 11 -0.0
2016-Feb-12 15:21 360 6 gusting 12 -0.0
2016-Feb-12 15:06 360 6 gusting 10 -0.0
2016-Feb-12 14:51 360 6 gusting 12 -0.0
2016-Feb-12 14:36 360 6 gusting 9 -0.0
2016-Feb-12 14:21 360 5 gusting 10 -0.0
2016-Feb-12 14:06 360 6 gusting 10 -0.0
2016-Feb-12 13:49 360 7 gusting 14 0.6
2016-Feb-12 13:34 360 4 gusting 9 0.6
2016-Feb-12 13:19 360 5 gusting 7 0.6
2016-Feb-12 13:04 360 2 gusting 8 0.6
2016-Feb-12 12:49 360 2 gusting 6 0.6
2016-Feb-12 12:34 360 4 gusting 8 0.6
2016-Feb-12 12:19 360 2 gusting 7 0.6
2016-Feb-12 12:03 360 4 gusting 6 1.1
2016-Feb-12 11:48 360 4 gusting 7 0.6
2016-Feb-12 11:33 360 2 gusting 8 0.6
2016-Feb-12 11:18 360 2 gusting 6 0.6
2016-Feb-12 11:02 360 3 gusting 7 0.6
2016-Feb-12 10:47 360 3 gusting 7 0.6
2016-Feb-12 10:32 360 3 gusting 8 0.6
2016-Feb-12 10:17 360 3 gusting 7 0.6
2016-Feb-12 10:02 360 5 gusting 6 0.6
2016-Feb-12 09:47 360 3 gusting 6 0.6
2016-Feb-12 09:32 360 2 gusting 6 -0.0
2016-Feb-12 09:16 360 4 gusting 7 -0.0
2016-Feb-12 09:01 360 3 gusting 6 -0.0
2016-Feb-12 08:46 360 3 gusting 6 -0.0
2016-Feb-12 08:31 360 3 gusting 7 -0.0
2016-Feb-12 08:16 360 3 gusting 6 -0.0
2016-Feb-12 08:01 360 2 gusting 5 -0.0
2016-Feb-12 07:45 360 1 gusting 4 -0.0
2016-Feb-12 07:31 360 2 gusting 5 -0.0
2016-Feb-12 07:15 360 2 gusting 5 -0.0
2016-Feb-12 07:00 360 -0.0
2016-Feb-12 06:45 360 1 gusting 3 -0.0
2016-Feb-12 06:30 360 0 gusting 6 -0.0
2016-Feb-12 06:15 360 2 gusting 7 -0.0
2016-Feb-12 06:00 360 2 gusting 6 -0.0
2016-Feb-12 05:45 360 1 gusting 6 -0.0
2016-Feb-12 05:30 360 2 gusting 4 -0.0
2016-Feb-12 05:15 360 1 gusting 5 -0.0
2016-Feb-12 05:00 360 2 gusting 6 -0.0
2016-Feb-12 04:45 360 0 gusting 5 -0.0
2016-Feb-12 04:30 360 1 gusting 4 -0.0
2016-Feb-12 04:15 360 1 gusting 4 -0.0
2016-Feb-12 04:00 360 1 gusting 4 -0.0
2016-Feb-12 03:45 360 1 gusting 3 -0.0
2016-Feb-12 03:30 360 0 gusting 3 -0.0
2016-Feb-12 03:15 360 2 gusting 4 -0.0
2016-Feb-12 03:00 360 0 gusting 4 -0.0
2016-Feb-12 02:45 360 0 gusting 4 -0.0
2016-Feb-12 02:30 360 0 gusting 3 -0.0
2016-Feb-12 02:15 360 1 gusting 5 -0.0
2016-Feb-12 02:00 360 0 gusting 3 -0.0
2016-Feb-12 01:45 360 -0.0
2016-Feb-12 01:30 360 0 gusting 3 -0.0
2016-Feb-12 01:15 360 1 gusting 4 -0.0
2016-Feb-12 01:00 360 -0.0
2016-Feb-12 00:45 360 -0.0
2016-Feb-12 00:30 360 -0.0
2016-Feb-12 00:15 360 -0.0
2016-Feb-11 23:45 360 -0.0
2016-Feb-11 23:30 360 -0.0
2016-Feb-11 23:15 360 -0.0
2016-Feb-11 23:00 360 0.6
2016-Feb-11 22:46 360 0.6
2016-Feb-11 22:30 360 0.6
2016-Feb-11 22:13 360 1.1
2016-Feb-11 21:59 360 1.1
2016-Feb-11 21:44 360 1.1
2016-Feb-11 21:28 360 1.1
2016-Feb-11 21:14 360 1.1
2016-Feb-11 20:59 360 1 gusting 4 1.1
2016-Feb-11 20:42 360 0 gusting 3 1.1
2016-Feb-11 20:27 360 1 gusting 3 1.1
2016-Feb-11 20:12 360 1.7
2016-Feb-11 19:57 360 0 gusting 2 1.7
2016-Feb-11 19:42 360 0 gusting 2 1.7
2016-Feb-11 19:27 360 0 gusting 4 1.7
2016-Feb-11 19:12 360 0 gusting 4 1.7
2016-Feb-11 18:57 360 1 gusting 3 1.7
2016-Feb-11 18:40 360 1.7
2016-Feb-11 18:25 360 1.7
2016-Feb-11 18:11 360 0 gusting 4 1.7
2016-Feb-11 17:55 360 3 gusting 6 1.7
2016-Feb-11 17:40 360 3 gusting 6 1.7
2016-Feb-11 17:26 360 3 gusting 5 1.7
2016-Feb-11 17:10 360 2 gusting 3 1.7
2016-Feb-11 16:56 360 2.2
2016-Feb-11 16:40 360 1 gusting 3 2.2
2016-Feb-11 16:23 360 1 gusting 3 2.2
2016-Feb-11 16:09 360 1 gusting 6 2.2
2016-Feb-11 15:53 360 3 gusting 8 2.2
2016-Feb-11 15:38 360 2 gusting 6 2.2
2016-Feb-11 15:24 360 1 gusting 4 2.2
2016-Feb-11 15:09 360 2.2
2016-Feb-11 14:53 360 1 gusting 4 2.2
2016-Feb-11 14:37 360 1 gusting 4 2.2
2016-Feb-11 14:22 360 0 gusting 3 2.2
2016-Feb-11 14:07 360 2.2
2016-Feb-11 13:52 360 2 gusting 5 2.2
2016-Feb-11 13:37 360 0 gusting 7 2.2
2016-Feb-11 13:22 360 2 gusting 6 2.2
2016-Feb-11 13:07 360 1 gusting 4 2.2
2016-Feb-11 12:50 360 1 gusting 6 2.2
2016-Feb-11 12:35 360 2 gusting 7 2.2
2016-Feb-11 12:20 360 2 gusting 8 2.2
2016-Feb-11 12:05 360 3 gusting 8 2.2
2016-Feb-11 11:50 360 4 gusting 7 2.2
2016-Feb-11 11:36 360 4 gusting 7 2.2
2016-Feb-11 11:19 360 4 gusting 7 2.2
2016-Feb-11 11:04 360 3 gusting 9 2.2
2016-Feb-11 10:50 360 4 gusting 7 2.2
2016-Feb-11 10:34 360 5 gusting 8 2.2
2016-Feb-11 10:19 360 4 gusting 7 2.2
2016-Feb-11 10:04 360 4 gusting 7 2.2
2016-Feb-11 09:49 360 4 gusting 8 2.2
2016-Feb-11 09:34 360 3 gusting 8 2.2
2016-Feb-11 09:19 360 3 gusting 7 2.2
2016-Feb-11 09:03 360 5 gusting 9 2.2
2016-Feb-11 08:47 360 5 gusting 8 2.2
2016-Feb-11 08:32 360 3 gusting 7 2.2
2016-Feb-11 08:17 360 3 gusting 8 2.2
2016-Feb-11 08:02 360 1 gusting 8 2.2